Time;durP1;ratioP1;P1;durP2;ratioP2;P2;SDS_P1;SDS_P2;PMS_P1;PMS_P2;Temp;Humidity;BMP_temperature;BMP_pressure;BME280_temperature;BME280_humidity;BME280_pressure;Samples;Min_cycle;Max_cycle;Signal;HPM_P1;HPM_P2
2022/06/15 00:00:43;;;;;;;2.92;1.65;;;;;;;25.57;41.86;101983.56;5028169;28;20029;-69
2022/06/15 00:03:09;;;;;;;2.13;1.70;;;;;;;25.55;42.11;101972.91;5028298;28;20468;-69
2022/06/15 00:05:35;;;;;;;4.28;1.60;;;;;;;25.55;42.05;101970.25;5027774;28;20059;-69
2022/06/15 00:08:00;;;;;;;2.25;1.70;;;;;;;25.53;42.13;101965.84;5028405;28;20025;-69
2022/06/15 00:10:26;;;;;;;3.53;1.70;;;;;;;25.53;41.95;101958.72;5028322;28;20041;-69
2022/06/15 00:12:51;;;;;;;2.40;1.67;;;;;;;25.51;41.96;101959.69;5027642;28;20065;-69
2022/06/15 00:15:17;;;;;;;2.35;1.60;;;;;;;25.45;42.31;101964.28;5028235;28;20571;-69
2022/06/15 00:17:42;;;;;;;3.08;1.70;;;;;;;25.51;41.96;101965.03;5028131;28;20025;-69
2022/06/15 00:20:08;;;;;;;2.42;1.60;;;;;;;25.53;42.13;101957.84;5028219;28;20025;-69
2022/06/15 00:22:34;;;;;;;2.67;1.40;;;;;;;25.52;42.06;101956.09;5027775;28;20040;-69
2022/06/15 00:24:59;;;;;;;2.10;1.60;;;;;;;25.52;42.19;101964.09;5027926;28;20029;-69
2022/06/15 00:27:25;;;;;;;2.85;1.70;;;;;;;25.51;42.03;101957.00;5027894;28;20068;-69
2022/06/15 00:29:50;;;;;;;2.83;1.70;;;;;;;25.52;42.29;101961.44;5028147;28;20029;-69
2022/06/15 00:32:16;;;;;;;2.53;1.60;;;;;;;25.73;41.66;101959.00;5027404;28;20029;-70
2022/06/15 00:34:41;;;;;;;2.60;1.67;;;;;;;25.74;41.57;101958.06;5027511;28;20049;-69
2022/06/15 00:37:07;;;;;;;3.13;1.65;;;;;;;25.75;41.62;101959.81;5028062;28;20492;-69
2022/06/15 00:39:33;;;;;;;2.67;1.70;;;;;;;25.74;41.62;101963.41;5028199;28;20418;-69
2022/06/15 00:41:59;;;;;;;2.50;1.50;;;;;;;25.76;41.44;101963.34;5031788;28;20026;-69
2022/06/15 00:44:24;;;;;;;2.05;1.70;;;;;;;25.74;41.59;101959.84;5031461;28;20349;-69
2022/06/15 00:46:53;;;;;;;2.60;1.70;;;;;;;25.72;41.52;101967.94;5046549;28;20578;-69
2022/06/15 00:49:28;;;;;;;2.67;1.60;;;;;;;25.69;41.55;101960.00;5031015;28;20072;-69
2022/06/15 00:52:01;;;;;;;2.03;1.50;;;;;;;25.69;41.74;101961.81;5031453;28;20028;-69
2022/06/15 00:54:26;;;;;;;2.67;1.50;;;;;;;25.69;41.92;101959.13;5029418;28;20084;-69
2022/06/15 00:56:53;;;;;;;3.22;1.70;;;;;;;25.68;41.42;101960.03;5030695;28;20037;-69
2022/06/15 00:59:28;;;;;;;1.90;1.40;;;;;;;25.67;41.63;101953.88;5029902;28;20052;-69
2022/06/15 01:01:53;;;;;;;2.63;1.70;;;;;;;25.67;41.54;101950.31;5031041;28;20037;-69
2022/06/15 01:04:21;;;;;;;2.22;1.60;;;;;;;25.66;41.83;101952.09;5030749;28;20040;-69
2022/06/15 01:07:06;;;;;;;2.25;1.50;;;;;;;25.62;41.96;101954.91;5031268;28;20029;-69
2022/06/15 01:09:42;;;;;;;2.85;1.63;;;;;;;25.61;41.58;101953.19;5031022;28;20117;-69
2022/06/15 01:12:26;;;;;;;2.20;1.55;;;;;;;25.62;42.02;101952.22;5031336;28;20463;-69
2022/06/15 01:14:59;;;;;;;;;;;;;;;25.62;41.50;101953.09;5031371;28;20510;-69
2022/06/15 01:17:56;;;;;;;1.80;1.50;;;;;;;25.60;41.85;101956.78;5030255;28;19930;-69
2022/06/15 01:20:52;;;;;;;1.80;1.60;;;;;;;25.57;41.81;101955.06;5013014;28;20403;-69
2022/06/15 01:23:56;;;;;;;2.42;1.60;;;;;;;25.57;41.80;101957.72;5029467;28;20112;-69
2022/06/15 01:27:01;;;;;;;2.47;1.65;;;;;;;25.57;41.99;101947.03;5030237;28;20030;-69
2022/06/15 01:29:29;;;;;;;2.15;1.48;;;;;;;25.54;41.89;101949.78;5030394;28;20362;-69
2022/06/15 01:32:03;;;;;;;2.00;1.60;;;;;;;25.54;41.65;101944.47;5030284;28;20108;-69
2022/06/15 01:34:40;;;;;;;2.35;1.40;;;;;;;25.53;41.53;101941.81;5030525;28;20141;-69
2022/06/15 01:37:21;;;;;;;2.40;1.60;;;;;;;25.53;41.74;101948.03;5030407;28;20021;-69
2022/06/15 01:40:02;;;;;;;2.53;1.70;;;;;;;25.53;41.66;101944.50;5030592;28;20068;-69
2022/06/15 01:42:36;;;;;;;1.90;1.40;;;;;;;25.53;42.13;101952.50;5030554;28;20021;-69
2022/06/15 01:45:04;;;;;;;;;;;;;;;25.55;41.76;101943.53;5031018;28;20125;-69
2022/06/15 01:47:32;;;;;;;2.00;1.40;;;;;;;25.53;41.93;101936.50;5029672;28;19921;-69
2022/06/15 01:50:07;;;;;;;1.80;1.30;;;;;;;25.51;41.90;101938.31;5030384;28;20025;-69
2022/06/15 01:52:39;;;;;;;2.03;1.50;;;;;;;25.52;41.99;101940.06;5028734;28;20135;-69
2022/06/15 01:55:22;;;;;;;2.50;1.60;;;;;;;25.49;41.54;101934.84;5029390;28;20064;-69
2022/06/15 01:57:52;;;;;;;3.38;1.70;;;;;;;25.48;41.76;101935.75;5030047;28;20052;-69
2022/06/15 02:00:18;;;;;;;2.17;1.60;;;;;;;25.49;41.75;101932.19;5030029;28;20053;-69
2022/06/15 02:03:11;;;;;;;2.72;1.52;;;;;;;25.46;41.79;101933.13;5029020;28;20576;-69
2022/06/15 02:05:55;;;;;;;2.45;1.60;;;;;;;25.46;41.93;101936.69;5030096;28;20096;-69
2022/06/15 02:08:53;;;;;;;2.37;1.70;;;;;;;25.43;42.11;101926.09;5029966;28;20078;-69
2022/06/15 02:11:29;;;;;;;2.30;1.40;;;;;;;25.43;41.91;101923.41;5029903;28;20982;-69
2022/06/15 02:14:05;;;;;;;2.10;1.63;;;;;;;25.43;42.01;101935.91;5030032;28;20100;-69
2022/06/15 02:16:57;;;;;;;2.20;1.67;;;;;;;25.41;41.98;101925.28;5024910;28;20456;-69
2022/06/15 02:19:43;;;;;;;2.30;1.48;;;;;;;25.41;42.02;101924.41;5029241;28;20120;-68
2022/06/15 02:22:13;;;;;;;2.30;1.45;;;;;;;25.41;41.72;101927.06;5029676;28;20025;-69
2022/06/15 02:24:41;;;;;;;1.60;1.50;;;;;;;25.39;42.08;101927.13;5029494;28;20437;-69
2022/06/15 02:27:08;;;;;;;2.30;1.50;;;;;;;25.37;42.03;101923.59;5029227;28;20073;-69
2022/06/15 02:29:37;;;;;;;2.25;1.55;;;;;;;25.37;42.01;101917.41;5029328;28;20033;-69
2022/06/15 02:32:07;;;;;;;2.42;1.60;;;;;;;25.37;42.19;101922.75;5028183;28;20029;-69
2022/06/15 02:34:33;;;;;;;1.90;1.50;;;;;;;25.34;42.35;101913.03;5029019;28;20056;-69
2022/06/15 02:36:58;;;;;;;2.47;1.60;;;;;;;25.35;42.08;101922.81;5029527;28;20030;-68
2022/06/15 02:39:24;;;;;;;3.20;1.50;;;;;;;25.32;41.95;101920.22;5029059;28;20087;-69
2022/06/15 02:42:01;;;;;;;1.80;1.50;;;;;;;25.32;42.06;101922.00;5029224;28;20033;-69
2022/06/15 02:44:30;;;;;;;2.42;1.50;;;;;;;25.32;42.18;101922.00;5029062;28;20413;-69
2022/06/15 02:46:58;;;;;;;2.15;1.55;;;;;;;25.31;42.13;101925.63;5029328;28;20118;-69
2022/06/15 02:49:23;;;;;;;3.10;1.60;;;;;;;25.30;42.18;101915.88;5028576;28;20029;-69
2022/06/15 02:52:05;;;;;;;2.20;1.50;;;;;;;25.28;42.07;101920.38;5029463;28;20040;-69
2022/06/15 02:54:42;;;;;;;2.13;1.60;;;;;;;25.28;41.94;101923.03;5029122;28;20025;-69
2022/06/15 02:57:08;;;;;;;2.25;1.58;;;;;;;25.27;42.13;101913.28;5027605;28;20029;-69
2022/06/15 02:59:33;;;;;;;1.77;1.40;;;;;;;25.28;42.17;101909.69;5028819;28;20033;-69
2022/06/15 03:01:59;;;;;;;3.08;1.40;;;;;;;25.27;42.11;101908.81;5027064;28;20037;-69
2022/06/15 03:04:24;;;;;;;2.15;1.50;;;;;;;25.28;41.89;101905.22;5026941;28;20057;-69
2022/06/15 03:06:50;;;;;;;1.85;1.40;;;;;;;25.28;41.96;101907.03;5028704;28;20538;-69
2022/06/15 03:09:15;;;;;;;1.83;1.42;;;;;;;25.27;41.95;101906.13;5028421;28;20463;-69
2022/06/15 03:11:41;;;;;;;1.70;1.30;;;;;;;25.27;42.27;101906.13;5028740;28;20040;-69
2022/06/15 03:14:07;;;;;;;1.83;1.45;;;;;;;25.25;42.20;101910.66;5028445;28;20124;-69
2022/06/15 03:16:33;;;;;;;1.80;1.50;;;;;;;25.26;42.00;101908.84;5028612;28;20075;-69
2022/06/15 03:18:58;;;;;;;2.00;1.60;;;;;;;25.25;42.21;101901.78;5027742;28;20037;-69
2022/06/15 03:21:24;;;;;;;2.35;1.35;;;;;;;25.24;42.07;101902.72;5027017;28;20033;-69
2022/06/15 03:23:49;;;;;;;1.90;1.45;;;;;;;25.22;42.14;101899.19;5043601;28;20037;-69
2022/06/15 03:26:14;;;;;;;2.35;1.50;;;;;;;25.20;42.00;101903.69;5028457;28;20725;-69
2022/06/15 03:28:40;;;;;;;1.98;1.40;;;;;;;25.19;42.22;101900.16;5028265;28;20083;-69
2022/06/15 03:31:06;;;;;;;1.67;1.30;;;;;;;25.18;42.04;101895.75;5028523;28;20104;-69
2022/06/15 03:33:31;;;;;;;1.90;1.60;;;;;;;25.19;42.29;101896.66;5027997;28;20132;-69
2022/06/15 03:35:57;;;;;;;2.00;1.50;;;;;;;25.16;42.11;101894.94;5043337;28;20033;-69
2022/06/15 03:38:24;;;;;;;1.85;1.50;;;;;;;25.16;42.34;101894.06;5010647;28;20483;-69
2022/06/15 03:40:50;;;;;;;1.95;1.48;;;;;;;25.15;42.26;101898.50;5027056;28;20048;-69
2022/06/15 03:43:16;;;;;;;2.20;1.60;;;;;;;25.14;42.24;101891.44;5027971;28;20472;-69
2022/06/15 03:45:42;;;;;;;2.35;1.60;;;;;;;25.15;42.37;101895.84;5028387;28;20033;-69
2022/06/15 03:48:08;;;;;;;1.80;1.50;;;;;;;25.15;42.30;101895.84;5028096;28;20048;-69
2022/06/15 03:50:35;;;;;;;2.05;1.50;;;;;;;25.13;42.39;101892.34;5028278;28;20034;-69
2022/06/15 03:53:01;;;;;;;3.10;1.50;;;;;;;25.13;41.93;101897.69;5027849;28;20136;-70
2022/06/15 03:55:28;;;;;;;1.70;1.50;;;;;;;25.15;42.08;101892.31;5028230;28;20108;-70
2022/06/15 03:57:54;;;;;;;2.28;1.50;;;;;;;25.14;42.00;101896.75;5027016;28;20033;-68
2022/06/15 04:00:21;;;;;;;1.80;1.30;;;;;;;25.14;42.06;101887.88;5028474;28;20087;-68
2022/06/15 04:02:47;;;;;;;2.70;1.23;;;;;;;25.17;41.99;101895.81;5026264;28;20057;-69
2022/06/15 04:05:19;;;;;;;2.13;1.30;;;;;;;25.14;42.17;101894.09;5027682;28;20068;-69
2022/06/15 04:10:29;;;;;;;1.92;1.45;;;;;;;25.14;42.11;101898.56;5027705;28;20044;-69
2022/06/15 04:12:54;;;;;;;2.15;1.40;;;;;;;25.15;42.04;101894.97;5028018;28;20030;-69
2022/06/15 04:15:19;;;;;;;2.00;1.50;;;;;;;25.16;42.23;101894.94;5029273;28;20037;-69
2022/06/15 04:17:45;;;;;;;1.85;1.35;;;;;;;25.16;42.20;101891.38;5031393;28;20029;-69
2022/06/15 04:20:34;;;;;;;1.75;1.35;;;;;;;25.16;42.00;101894.94;5029918;28;20034;-69
2022/06/15 04:23:11;;;;;;;1.40;1.20;;;;;;;25.16;41.99;101884.25;5031880;28;20112;-69
2022/06/15 04:25:46;;;;;;;2.58;1.77;;;;;;;25.17;42.11;101887.81;5031393;28;20029;-70
2022/06/15 04:28:15;;;;;;;2.38;1.50;;;;;;;25.17;42.07;101887.81;5031718;28;20151;-69
2022/06/15 04:30:40;;;;;;;2.30;1.52;;;;;;;25.17;41.84;101896.69;5031495;28;20427;-69
2022/06/15 04:33:06;;;;;;;1.90;1.50;;;;;;;25.17;41.80;101898.47;5031229;28;20077;-69
2022/06/15 04:35:32;;;;;;;2.45;1.40;;;;;;;25.17;42.03;101898.47;5031414;28;20033;-69
2022/06/15 04:37:57;;;;;;;2.55;1.50;;;;;;;25.16;41.70;101902.06;5029851;28;20030;-69
2022/06/15 04:40:22;;;;;;;2.20;1.35;;;;;;;25.17;41.88;101906.47;5031403;28;20447;-69
2022/06/15 04:42:48;;;;;;;1.75;1.30;;;;;;;25.14;41.88;101904.78;5031346;28;20045;-69
2022/06/15 04:45:15;;;;;;;1.75;1.30;;;;;;;25.13;41.84;101911.03;5030094;28;20033;-70
2022/06/15 04:47:41;;;;;;;1.67;1.30;;;;;;;25.12;42.14;101905.75;5030606;28;20051;-70
2022/06/15 04:50:08;;;;;;;1.75;1.30;;;;;;;25.12;41.77;101916.44;5031215;28;20022;-70
2022/06/15 04:52:34;;;;;;;2.05;1.52;;;;;;;25.10;41.85;101911.13;5031175;28;20033;-69
2022/06/15 04:54:59;;;;;;;2.03;1.50;;;;;;;25.10;42.15;101918.25;5030546;28;20581;-69
2022/06/15 04:57:25;;;;;;;2.17;1.40;;;;;;;25.11;42.49;101920.88;5046478;28;20040;-69
2022/06/15 04:59:50;;;;;;;2.30;1.40;;;;;;;25.10;42.18;101919.13;5031215;28;20033;-69
2022/06/15 05:02:16;;;;;;;2.50;1.27;;;;;;;25.09;41.90;101917.38;5030899;28;20153;-69
2022/06/15 05:04:42;;;;;;;1.90;1.50;;;;;;;25.13;41.81;101926.19;5031017;28;20374;-69
2022/06/15 05:07:08;;;;;;;1.95;1.35;;;;;;;25.13;42.06;101926.19;5030592;28;20037;-69
2022/06/15 05:09:33;;;;;;;1.42;1.30;;;;;;;25.13;41.92;101916.34;5030779;28;20032;-69
2022/06/15 05:11:58;;;;;;;2.45;1.42;;;;;;;25.13;41.81;101920.84;5030614;28;20038;-69
2022/06/15 05:14:24;;;;;;;2.08;1.42;;;;;;;25.14;41.98;101919.91;5030381;28;20174;-69
2022/06/15 05:16:49;;;;;;;2.00;1.40;;;;;;;25.14;41.87;101920.78;5030944;28;20069;-69
2022/06/15 05:19:15;;;;;;;2.00;1.30;;;;;;;25.14;41.79;101917.22;5029065;28;20467;-70
2022/06/15 05:21:42;;;;;;;1.70;1.33;;;;;;;25.13;41.86;101915.50;5029348;28;20067;-70
2022/06/15 05:24:09;;;;;;;1.88;1.50;;;;;;;25.15;41.85;101919.00;5030564;28;20128;-69
2022/06/15 05:26:34;;;;;;;1.90;1.40;;;;;;;25.14;41.50;101922.56;5028672;28;20094;-70
2022/06/15 05:28:59;;;;;;;1.88;1.33;;;;;;;25.15;41.89;101919.00;5030471;28;20112;-69
2022/06/15 05:31:25;;;;;;;1.60;1.30;;;;;;;25.15;42.02;101927.88;5030351;28;20033;-70
2022/06/15 05:33:55;;;;;;;1.80;1.38;;;;;;;25.15;41.73;101927.88;5028885;28;20053;-70
2022/06/15 05:36:30;;;;;;;1.95;1.27;;;;;;;25.15;41.83;101924.31;5030260;28;20104;-70
2022/06/15 05:38:56;;;;;;;2.03;1.42;;;;;;;25.16;41.74;101920.75;5030169;28;20061;-70
2022/06/15 05:41:21;;;;;;;1.70;1.20;;;;;;;25.16;41.80;101918.06;5029960;28;20057;-70
2022/06/15 05:43:48;;;;;;;2.13;1.30;;;;;;;25.16;41.87;101920.75;5030498;28;20433;-70
2022/06/15 05:46:23;;;;;;;1.70;1.30;;;;;;;25.16;41.66;101918.94;5030306;28;20025;-70
2022/06/15 05:48:49;;;;;;;1.52;1.30;;;;;;;25.18;41.84;101922.47;5029968;28;20041;-69
2022/06/15 05:51:14;;;;;;;3.10;1.50;;;;;;;25.20;41.45;101922.38;5029486;28;20036;-70
2022/06/15 05:53:42;;;;;;;1.83;1.40;;;;;;;25.20;41.61;101923.25;5029937;28;20033;-69
2022/06/15 05:56:07;;;;;;;1.50;1.30;;;;;;;25.22;41.63;101924.09;5030190;28;20025;-69
2022/06/15 05:58:33;;;;;;;2.33;1.42;;;;;;;25.25;41.82;101921.31;5028784;28;20052;-70
2022/06/15 06:01:26;;;;;;;1.27;1.15;;;;;;;25.27;41.68;101918.59;5029643;28;20022;-70
2022/06/15 06:03:51;;;;;;;1.83;1.30;;;;;;;25.28;41.51;101912.34;5029199;28;20041;-70
2022/06/15 06:06:17;;;;;;;1.50;1.30;;;;;;;25.28;41.55;101913.22;5027914;28;20029;-69
2022/06/15 06:08:43;;;;;;;1.58;1.20;;;;;;;25.30;41.62;101911.41;5029574;28;20029;-70
2022/06/15 06:11:08;;;;;;;1.70;1.20;;;;;;;25.34;41.48;101910.38;5045208;28;20033;-70
2022/06/15 06:13:34;;;;;;;1.95;1.30;;;;;;;25.37;41.50;101912.09;5029660;28;20365;-70
2022/06/15 06:15:59;;;;;;;1.90;1.20;;;;;;;25.40;41.48;101912.84;5029633;28;20466;-69
2022/06/15 06:18:25;;;;;;;2.50;1.38;;;;;;;25.41;41.41;101903.91;5044657;28;20383;-69
2022/06/15 06:20:51;;;;;;;1.35;1.13;;;;;;;25.43;41.36;101902.06;5029652;28;20072;-69
2022/06/15 06:23:17;;;;;;;1.45;1.25;;;;;;;25.46;41.15;101901.97;5029372;28;20021;-70
2022/06/15 06:25:43;;;;;;;3.30;1.40;;;;;;;25.46;41.38;101906.44;5044958;28;20101;-69
2022/06/15 06:28:23;;;;;;;2.50;1.42;;;;;;;25.50;41.42;101901.84;5029241;28;20037;-69
2022/06/15 06:30:48;;;;;;;2.88;1.50;;;;;;;25.53;41.49;101899.09;5029221;28;20029;-69
2022/06/15 06:33:14;;;;;;;2.10;1.50;;;;;;;25.54;41.20;101901.72;5028785;28;20214;-69
2022/06/15 06:35:39;;;;;;;1.75;1.27;;;;;;;25.56;41.45;101899.88;5029414;28;20037;-69
2022/06/15 06:38:05;;;;;;;4.97;1.48;;;;;;;25.56;41.43;101899.00;5027076;28;20033;-69
2022/06/15 06:40:30;;;;;;;2.63;1.58;;;;;;;25.52;41.73;101900.91;5011089;28;20026;-69
2022/06/15 06:42:55;;;;;;;3.75;1.55;;;;;;;25.55;41.74;101908.81;5029122;28;20018;-69
2022/06/15 06:45:21;;;;;;;3.35;1.50;;;;;;;25.58;41.46;101910.53;5029081;28;20058;-69
2022/06/15 06:47:46;;;;;;;3.22;1.50;;;;;;;25.61;41.28;101913.13;5028929;28;20168;-69
2022/06/15 06:50:12;;;;;;;4.82;1.50;;;;;;;25.63;41.51;101922.81;5029259;28;20036;-70
2022/06/15 06:52:37;;;;;;;6.07;1.55;;;;;;;25.67;41.55;101919.13;5029798;28;20468;-69
2022/06/15 06:55:03;;;;;;;5.45;1.60;;;;;;;25.66;41.61;101930.75;5029947;28;20456;-70
2022/06/15 06:57:28;;;;;;;10.15;1.88;;;;;;;25.69;41.72;101925.28;5029557;28;20582;-69
2022/06/15 06:59:53;;;;;;;10.45;1.80;;;;;;;25.73;41.97;101926.06;5044297;28;20038;-68
2022/06/15 07:02:19;;;;;;;7.95;1.98;;;;;;;25.76;42.00;101933.97;5027850;28;20124;-69
2022/06/15 07:04:44;;;;;;;5.47;1.80;;;;;;;25.80;42.18;101927.59;5028994;28;20056;-69
2022/06/15 07:07:10;;;;;;;7.85;1.88;;;;;;;25.79;42.84;101928.53;5029027;28;20087;-69
2022/06/15 07:09:35;;;;;;;5.78;1.55;;;;;;;25.83;42.49;101931.06;5030007;28;20037;-69
2022/06/15 07:12:00;;;;;;;9.23;1.63;;;;;;;25.85;42.28;101931.88;5045141;28;20025;-69
2022/06/15 07:14:26;;;;;;;6.80;1.65;;;;;;;25.89;42.29;101935.31;5045362;28;20144;-69
2022/06/15 07:16:51;;;;;;;6.95;1.90;;;;;;;25.93;42.39;101944.09;5029562;28;20120;-69
2022/06/15 07:19:16;;;;;;;6.20;1.55;;;;;;;25.94;42.31;101936.03;5029650;28;20030;-69
2022/06/15 07:21:42;;;;;;;3.63;1.60;;;;;;;25.96;42.11;101944.00;5028427;28;20033;-68
2022/06/15 07:24:08;;;;;;;6.70;1.52;;;;;;;25.97;42.02;101948.44;5029607;28;20033;-69
2022/06/15 07:26:39;;;;;;;5.25;1.70;;;;;;;26.01;41.89;101947.38;5028252;28;20033;-69
2022/06/15 07:29:05;;;;;;;6.75;1.70;;;;;;;26.02;41.96;101951.81;5029301;28;20108;-69
2022/06/15 07:31:34;;;;;;;7.45;1.80;;;;;;;26.04;42.08;101952.66;5029425;28;20109;-69
2022/06/15 07:34:00;;;;;;;5.50;1.60;;;;;;;26.04;42.06;101952.66;5026409;28;20119;-69
2022/06/15 07:36:26;;;;;;;9.10;1.77;;;;;;;26.07;42.09;101958.75;5022544;28;20119;-69
2022/06/15 07:38:53;;;;;;;9.63;1.95;;;;;;;26.10;41.99;101956.00;5028614;28;20024;-68
2022/06/15 07:41:20;;;;;;;4.78;2.03;;;;;;;26.12;41.60;101947.91;5027705;28;20465;-68
2022/06/15 07:43:46;;;;;;;9.05;1.92;;;;;;;26.13;41.70;101953.19;5025688;28;20706;-68
2022/06/15 07:46:12;;;;;;;9.32;1.90;;;;;;;26.12;41.53;101962.13;5025971;28;20038;-71
2022/06/15 07:51:31;;;;;;;6.72;1.90;;;;;;;26.22;41.72;101955.56;5033782;28;20115;-70
2022/06/15 07:53:58;;;;;;;7.15;2.10;;;;;;;26.27;41.70;101957.22;5030849;28;20041;-69
2022/06/15 07:56:24;;;;;;;9.10;2.05;;;;;;;26.36;41.95;101964.91;5029222;28;20048;-69
2022/06/15 07:58:49;;;;;;;6.32;1.75;;;;;;;26.42;42.02;101957.56;5035399;28;20430;-66
2022/06/15 08:01:15;;;;;;;4.50;1.90;;;;;;;26.41;41.97;101953.13;5035445;28;20033;-66
2022/06/15 08:03:40;;;;;;;8.60;2.00;;;;;;;26.37;41.59;101956.84;5034247;28;20065;-66
2022/06/15 08:06:05;;;;;;;6.50;2.00;;;;;;;26.40;40.96;101956.75;5035192;28;20025;-67
2022/06/15 08:08:31;;;;;;;7.22;2.08;;;;;;;26.47;40.96;101960.94;5050338;28;20030;-67
2022/06/15 08:10:57;;;;;;;5.60;2.00;;;;;;;26.49;40.53;101959.09;5035092;28;20029;-66
2022/06/15 08:13:22;;;;;;;7.20;2.00;;;;;;;26.54;40.51;101962.47;5035483;28;20099;-66
2022/06/15 08:15:50;;;;;;;7.63;1.83;;;;;;;26.59;40.40;101965.00;5035344;28;20048;-66
2022/06/15 08:18:20;;;;;;;6.22;1.98;;;;;;;26.58;40.41;101950.75;5034250;28;20026;-67
2022/06/15 08:20:51;;;;;;;7.00;1.90;;;;;;;26.59;40.17;101957.81;5035064;28;20060;-66
2022/06/15 08:23:20;;;;;;;3.60;2.00;;;;;;;26.60;40.20;101956.03;5033649;28;20030;-67
2022/06/15 08:25:49;;;;;;;5.28;2.00;;;;;;;26.61;39.84;101957.78;5035170;28;20059;-67
2022/06/15 08:28:19;;;;;;;3.92;2.00;;;;;;;26.62;39.81;101955.06;5035217;28;20337;-67
2022/06/15 08:30:45;;;;;;;4.57;2.28;;;;;;;26.64;39.56;101953.22;5035298;28;20025;-67
2022/06/15 08:33:11;;;;;;;5.53;1.75;;;;;;;26.67;39.68;101961.09;5034750;28;20446;-66
2022/06/15 08:35:37;;;;;;;5.13;2.10;;;;;;;26.65;39.73;101956.75;5035336;28;20025;-67
2022/06/15 08:38:04;;;;;;;7.40;2.03;;;;;;;26.67;39.74;101960.22;5034831;28;20425;-68
2022/06/15 08:40:36;;;;;;;4.38;1.90;;;;;;;26.65;39.64;101954.09;5034788;28;20056;-67
2022/06/15 08:43:14;;;;;;;8.55;1.80;;;;;;;26.59;39.28;101955.16;5032426;28;20014;-65
2022/06/15 08:45:50;;;;;;;13.13;2.20;;;;;;;26.70;39.16;101951.22;5035262;28;20510;-65
2022/06/15 08:49:12;;;;;;;4.88;1.90;;;;;;;26.71;38.97;101956.53;5034462;28;20029;-65
2022/06/15 08:51:43;;;;;;;6.60;2.00;;;;;;;26.73;38.71;101954.66;4971265;28;20035;-65
2022/06/15 08:55:02;;;;;;;3.45;1.88;;;;;;;26.77;38.58;101944.72;4993003;28;20101;-65
2022/06/15 08:57:56;;;;;;;5.35;2.08;;;;;;;26.79;38.29;101940.16;5027670;28;20037;-65
2022/06/15 09:00:34;;;;;;;5.90;2.00;;;;;;;26.85;38.30;101950.66;5022377;28;20108;-65
2022/06/15 09:03:05;;;;;;;3.67;1.80;;;;;;;26.90;38.26;101943.34;5034752;28;20750;-65
2022/06/15 09:06:23;;;;;;;4.25;1.90;;;;;;;26.91;38.17;101950.44;5025198;28;20044;-65
2022/06/15 09:08:56;;;;;;;5.32;2.00;;;;;;;26.87;38.28;101946.13;4971433;28;20458;-69
2022/06/15 09:11:30;;;;;;;3.45;1.80;;;;;;;26.87;38.76;101948.81;5019880;28;20400;-67
2022/06/15 09:14:20;;;;;;;5.20;2.15;;;;;;;26.85;38.86;101953.31;5032497;28;20273;-72
2022/06/15 09:17:03;;;;;;;6.93;2.00;;;;;;;26.82;39.23;101948.97;5027808;28;20041;-73
2022/06/15 09:19:35;;;;;;;6.30;1.90;;;;;;;26.83;38.25;101952.53;5027243;28;20040;-72
2022/06/15 09:22:06;;;;;;;3.03;1.70;;;;;;;26.86;38.51;101957.75;5032359;28;20388;-71
2022/06/15 09:24:49;;;;;;;10.00;2.13;;;;;;;26.80;38.68;101949.94;5034666;28;20018;-69
2022/06/15 09:27:26;;;;;;;4.82;1.67;;;;;;;26.79;38.56;101953.56;5034557;28;20032;-69
2022/06/15 09:30:19;;;;;;;6.65;1.90;;;;;;;26.76;38.34;101951.88;5014755;28;20033;-67
2022/06/15 09:33:00;;;;;;;5.47;1.77;;;;;;;26.80;38.56;101944.59;5025661;28;20049;-66
2022/06/15 09:35:37;;;;;;;8.88;2.20;;;;;;;26.87;37.90;101943.44;5047504;28;20472;-66
2022/06/15 09:38:09;;;;;;;6.65;1.90;;;;;;;26.91;37.48;101945.09;5032443;28;20056;-66
2022/06/15 09:40:49;;;;;;;7.13;2.00;;;;;;;26.84;37.75;101938.19;5032754;28;20025;-67
2022/06/15 09:43:20;;;;;;;9.88;2.08;;;;;;;26.79;37.94;101945.53;5033477;28;20032;-67
2022/06/15 09:46:12;;;;;;;11.18;1.90;;;;;;;26.91;37.86;101945.97;5033407;28;20087;-66
2022/06/15 09:48:46;;;;;;;7.68;1.85;;;;;;;26.95;37.47;101946.75;5033836;28;20436;-66
2022/06/15 09:51:26;;;;;;;6.47;1.98;;;;;;;26.90;37.65;101946.91;5033499;28;20037;-66
2022/06/15 09:53:57;;;;;;;7.93;2.00;;;;;;;26.92;37.67;101946.84;5032690;28;20374;-67
2022/06/15 09:56:23;;;;;;;9.98;1.98;;;;;;;26.91;38.00;101945.09;5032485;28;20037;-66
2022/06/15 09:58:51;;;;;;;10.70;2.00;;;;;;;26.93;37.82;101932.53;5032604;28;20033;-65
2022/06/15 10:01:18;;;;;;;8.15;2.10;;;;;;;26.98;37.71;101935.91;5032238;28;20025;-65
2022/06/15 10:03:48;;;;;;;8.20;1.90;;;;;;;26.97;37.75;101927.00;5030555;28;20030;-66
2022/06/15 10:06:16;;;;;;;5.22;1.80;;;;;;;27.04;38.11;101930.31;5031772;28;20021;-66
2022/06/15 10:08:41;;;;;;;7.68;1.98;;;;;;;26.97;38.05;101926.13;5031747;28;20104;-67
2022/06/15 10:11:24;;;;;;;8.88;1.67;;;;;;;26.86;38.84;101931.88;5031767;28;20502;-67
2022/06/15 10:13:49;;;;;;;4.35;1.73;;;;;;;26.89;38.56;101928.25;5028455;28;20116;-68
2022/06/15 10:16:15;;;;;;;4.55;1.65;;;;;;;26.84;38.67;101931.03;5033393;28;20061;-69
2022/06/15 10:18:53;;;;;;;6.95;1.83;;;;;;;26.91;38.88;101924.56;5046383;28;20029;-67
2022/06/15 10:21:23;;;;;;;13.30;2.00;;;;;;;26.94;38.98;101919.13;5031191;28;20030;-67
2022/06/15 10:24:25;;;;;;;11.93;2.05;;;;;;;26.93;39.29;101921.84;5030821;28;20104;-68
2022/06/15 10:27:12;;;;;;;7.47;1.80;;;;;;;26.90;39.21;101911.25;5029886;28;20037;-71
2022/06/15 10:29:38;;;;;;;6.03;1.73;;;;;;;26.91;39.17;101908.50;5015126;28;20037;-67
2022/06/15 10:32:09;;;;;;;9.43;1.88;;;;;;;26.92;38.93;101918.28;5030405;28;20033;-68
2022/06/15 10:34:42;;;;;;;3.78;1.70;;;;;;;26.94;39.07;101911.09;5021986;28;20049;-68
2022/06/15 10:37:14;;;;;;;7.45;1.70;;;;;;;26.95;39.06;101911.97;5030493;28;20108;-68
2022/06/15 10:39:46;;;;;;;5.40;1.73;;;;;;;26.97;39.15;101910.06;5030083;28;20041;-68
2022/06/15 10:42:43;;;;;;;5.35;1.75;;;;;;;26.95;39.17;101904.81;5029018;28;20152;-68
2022/06/15 10:45:22;;;;;;;5.63;1.80;;;;;;;26.97;39.05;101904.72;5029470;28;20053;-68
2022/06/15 10:47:58;;;;;;;4.38;1.63;;;;;;;26.93;39.16;101906.66;5027470;28;20033;-67
2022/06/15 10:50:34;;;;;;;7.53;1.80;;;;;;;26.88;39.33;101902.38;5029813;28;20110;-67
2022/06/15 10:53:06;;;;;;;3.72;1.70;;;;;;;26.88;39.35;101900.63;5029575;28;20026;-67
2022/06/15 11:04:17;;;;;;;6.65;2.00;;;;;;;27.00;39.98;101896.59;5033204;28;20052;-65
2022/06/15 11:06:51;;;;;;;5.95;2.03;;;;;;;26.93;39.81;101897.75;5030756;28;20017;-65
2022/06/15 11:09:40;;;;;;;4.65;1.67;;;;;;;26.94;40.01;101897.72;5032958;28;20029;-65
2022/06/15 11:12:21;;;;;;;9.48;2.00;;;;;;;26.93;40.00;101893.28;5048293;28;20363;-65
2022/06/15 11:14:56;;;;;;;5.35;2.00;;;;;;;26.94;39.94;101894.16;5032857;28;20037;-65
2022/06/15 11:20:45;;;;;;;7.85;2.10;;;;;;;26.94;40.06;101896.84;5032498;28;20467;-66
2022/06/15 11:23:21;;;;;;;4.55;1.90;;;;;;;26.96;39.75;101892.28;5032880;28;20044;-66
2022/06/15 11:25:52;;;;;;;5.38;2.20;;;;;;;26.96;39.92;101895.81;5032722;28;20029;-66
2022/06/15 11:28:35;;;;;;;8.90;2.05;;;;;;;26.97;39.93;101896.69;5032784;28;20017;-65
2022/06/15 11:31:16;;;;;;;5.70;1.60;;;;;;;26.97;39.71;101892.22;5032831;28;20040;-65
2022/06/15 11:33:52;;;;;;;5.53;1.90;;;;;;;26.96;39.77;101887.78;5032520;28;20038;-65
2022/06/15 11:36:31;;;;;;;6.60;2.10;;;;;;;26.96;39.70;101887.78;5032760;28;20095;-65
2022/06/15 11:38:59;;;;;;;5.18;1.80;;;;;;;26.97;39.74;101883.31;5032771;28;20433;-65
2022/06/15 11:41:40;;;;;;;4.93;1.80;;;;;;;26.96;39.74;101887.78;5032562;28;20033;-66
2022/06/15 11:44:31;;;;;;;4.50;1.75;;;;;;;26.97;39.68;101886.88;5032755;28;20028;-65
2022/06/15 11:47:30;;;;;;;6.90;2.05;;;;;;;26.98;39.59;101887.75;5032592;28;20506;-65
2022/06/15 11:50:01;;;;;;;5.45;1.90;;;;;;;26.96;39.65;101885.13;5032162;28;20029;-65
2022/06/15 11:52:35;;;;;;;4.05;1.90;;;;;;;26.95;39.55;101882.53;5032481;28;20025;-65
2022/06/15 11:55:14;;;;;;;3.78;1.70;;;;;;;26.96;39.80;101881.56;5032416;28;20494;-66
2022/06/15 11:58:04;;;;;;;6.47;1.90;;;;;;;26.95;39.73;101883.41;5032868;28;20029;-65
2022/06/15 12:01:10;;;;;;;5.32;1.80;;;;;;;26.95;39.73;101882.53;5048249;28;20072;-65